createdAt,value
2023-05-06T00:02:47.208Z,17.08
2023-05-06T00:07:49.515Z,16.40
2023-05-06T00:12:51.772Z,16.63
2023-05-06T00:17:55.603Z,19.42
2023-05-06T00:22:58.031Z,17.23
2023-05-06T00:28:00.232Z,15.88
2023-05-06T00:33:02.431Z,16.90
2023-05-06T00:38:10.327Z,18.43
2023-05-06T00:43:12.474Z,16.37
2023-05-06T00:53:21.814Z,20.37
2023-05-06T00:58:24.009Z,16.73
2023-05-06T01:03:26.392Z,17.13
2023-05-06T01:08:42.138Z,16.52
2023-05-06T01:14:20.768Z,15.93
2023-05-06T01:19:46.696Z,15.30
2023-05-06T01:24:48.941Z,15.15
2023-05-06T01:29:51.132Z,16.97
2023-05-06T01:35:12.166Z,14.65
2023-05-06T01:40:17.849Z,16.48
2023-05-06T01:45:21.942Z,15.35
2023-05-06T01:50:24.192Z,15.52
2023-05-06T01:55:27.075Z,15.60
2023-05-06T02:00:29.350Z,16.00
2023-05-06T02:05:31.800Z,16.23
2023-05-06T02:10:33.928Z,14.20
2023-05-06T02:15:36.158Z,17.33
2023-05-06T02:20:38.258Z,17.37
2023-05-06T02:25:40.415Z,17.85
2023-05-06T02:30:42.733Z,15.95
2023-05-06T02:35:44.876Z,17.40
2023-05-06T02:40:47.047Z,24.65
2023-05-06T02:45:49.197Z,17.60
2023-05-06T02:50:52.157Z,16.98
2023-05-06T02:55:54.627Z,15.77
2023-05-06T03:00:56.875Z,15.70
2023-05-06T03:05:59.048Z,15.68
2023-05-06T03:11:01.567Z,15.60
2023-05-06T03:16:05.265Z,17.25
2023-05-06T03:21:07.589Z,16.00
2023-05-06T03:26:09.913Z,15.60
2023-05-06T03:31:12.301Z,17.00
2023-05-06T03:36:14.779Z,15.97
2023-05-06T03:41:18.110Z,15.73
2023-05-06T03:46:20.295Z,16.85
2023-05-06T03:51:22.663Z,15.13
2023-05-06T03:56:24.892Z,19.17
2023-05-06T04:01:27.054Z,15.90
2023-05-06T04:06:29.252Z,16.60
2023-05-06T04:11:31.794Z,14.48
2023-05-06T04:16:34.094Z,18.00
2023-05-06T04:21:36.224Z,15.52
2023-05-06T04:26:38.423Z,14.67
2023-05-06T04:31:40.640Z,14.73
2023-05-06T04:36:43.455Z,15.77
2023-05-06T04:41:46.207Z,12.95
2023-05-06T04:46:48.644Z,16.12
2023-05-06T04:51:50.959Z,15.37
2023-05-06T04:56:54.126Z,17.12
2023-05-06T05:01:56.281Z,14.82
2023-05-06T05:06:58.728Z,15.27
2023-05-06T05:12:04.484Z,16.45
2023-05-06T05:17:06.818Z,14.00
2023-05-06T05:22:09.052Z,16.90
2023-05-06T05:27:11.268Z,14.50
2023-05-06T05:32:13.630Z,14.55
2023-05-06T05:37:15.895Z,15.63
2023-05-06T05:42:18.056Z,14.97
2023-05-06T05:47:20.710Z,17.62
2023-05-06T05:52:22.922Z,15.90
2023-05-06T05:57:25.194Z,15.68
2023-05-06T06:02:27.706Z,17.12
2023-05-06T06:07:30.024Z,14.17
2023-05-06T06:12:32.210Z,13.95
2023-05-06T06:17:34.471Z,16.55
2023-05-06T06:22:36.837Z,16.85
2023-05-06T06:27:39.037Z,18.50
2023-05-06T06:32:49.537Z,15.77
2023-05-06T06:37:51.746Z,15.85
2023-05-06T06:42:53.969Z,16.70
2023-05-06T06:47:56.153Z,17.20
2023-05-06T06:52:58.411Z,16.05
2023-05-06T06:58:00.823Z,16.07
2023-05-06T07:03:03.120Z,15.48
2023-05-06T07:08:05.726Z,16.25
2023-05-06T07:13:07.938Z,15.32
2023-05-06T07:18:10.198Z,13.73
2023-05-06T07:23:12.363Z,13.97
2023-05-06T07:28:15.769Z,16.00
2023-05-06T07:33:18.000Z,14.38
2023-05-06T07:38:23.928Z,15.40
2023-05-06T07:43:26.099Z,16.42
2023-05-06T07:48:29.735Z,13.57
2023-05-06T07:53:32.023Z,15.38
2023-05-06T07:58:35.684Z,14.60
2023-05-06T08:03:38.151Z,13.63
2023-05-06T08:08:40.635Z,14.23
2023-05-06T08:13:42.853Z,15.37
2023-05-06T08:18:45.065Z,14.68
2023-05-06T08:23:47.310Z,15.05
2023-05-06T08:28:49.886Z,15.70
2023-05-06T08:33:54.326Z,13.32
2023-05-06T08:38:57.194Z,13.87
2023-05-06T08:44:01.996Z,16.23
2023-05-06T08:49:04.181Z,13.62
2023-05-06T08:54:07.582Z,13.00
2023-05-06T08:59:09.734Z,15.82
2023-05-06T09:04:13.082Z,18.90
2023-05-06T09:09:25.515Z,17.52
2023-05-06T09:14:27.884Z,15.50
2023-05-06T09:19:30.268Z,14.03
2023-05-06T09:24:32.579Z,17.37
2023-05-06T09:29:34.756Z,16.67
2023-05-06T09:34:37.061Z,17.92
2023-05-06T09:39:39.351Z,17.20
2023-05-06T09:44:41.827Z,19.03
2023-05-06T09:49:44.421Z,18.20
2023-05-06T09:54:47.464Z,12.73
2023-05-06T09:59:50.805Z,13.05
2023-05-06T10:04:56.399Z,10.80
2023-05-06T10:10:00.407Z,11.33
2023-05-06T10:15:04.453Z,11.38
2023-05-06T10:20:09.715Z,10.00
2023-05-06T10:25:30.184Z,11.32
2023-05-06T10:30:39.863Z,10.70
2023-05-06T10:35:42.458Z,11.43
2023-05-06T10:40:45.121Z,12.57
2023-05-06T10:46:03.613Z,12.50
2023-05-06T10:51:17.776Z,12.52
2023-05-06T10:56:20.202Z,13.05
2023-05-06T11:01:32.270Z,11.90
2023-05-06T11:06:53.950Z,11.63
2023-05-06T11:12:02.673Z,10.57
2023-05-06T11:17:07.248Z,12.18
2023-05-06T11:22:30.470Z,10.63
2023-05-06T11:27:33.850Z,9.80
2023-05-06T11:32:36.349Z,10.88
2023-05-06T11:37:38.678Z,11.43
2023-05-06T11:42:41.038Z,13.07
2023-05-06T11:47:44.720Z,11.63
2023-05-06T11:52:46.986Z,12.77
2023-05-06T11:57:50.011Z,11.15
2023-05-06T12:02:57.431Z,10.37
2023-05-06T12:07:59.818Z,9.80
2023-05-06T12:13:02.512Z,10.63
2023-05-06T12:18:05.692Z,9.50
2023-05-06T12:23:12.605Z,10.23
2023-05-06T12:28:22.246Z,9.67
2023-05-06T12:33:24.454Z,11.93
2023-05-06T12:38:26.788Z,9.20
2023-05-06T12:43:32.509Z,8.60
2023-05-06T12:48:35.412Z,10.13
2023-05-06T12:53:37.787Z,9.27
2023-05-06T12:58:40.143Z,10.07
2023-05-06T13:03:42.388Z,10.15
2023-05-06T13:08:44.641Z,9.70
2023-05-06T13:13:46.923Z,8.90
2023-05-06T13:18:49.624Z,11.60
2023-05-06T13:23:51.826Z,9.65
2023-05-06T13:28:53.991Z,9.07
2023-05-06T13:33:56.397Z,10.17
2023-05-06T13:38:58.653Z,10.57
2023-05-06T13:44:01.231Z,12.73
2023-05-06T13:49:03.486Z,12.37
2023-05-06T13:54:06.175Z,10.68
2023-05-06T13:59:10.061Z,10.60
2023-05-06T14:04:12.852Z,10.05
2023-05-06T14:09:15.040Z,11.10
2023-05-06T14:14:18.563Z,11.73
2023-05-06T14:19:21.149Z,12.32
2023-05-06T14:24:23.397Z,12.87
2023-05-06T14:29:26.888Z,12.30
2023-05-06T14:34:29.077Z,13.27
2023-05-06T14:39:31.317Z,14.23
2023-05-06T14:44:33.503Z,15.25
2023-05-06T14:49:35.762Z,14.73
2023-05-06T14:54:42.356Z,15.10
2023-05-06T14:59:44.856Z,17.20
2023-05-06T15:04:47.127Z,14.18
2023-05-06T15:09:49.358Z,14.23
2023-05-06T15:14:51.533Z,15.37
2023-05-06T15:19:53.986Z,14.85
2023-05-06T15:24:56.214Z,14.77
2023-05-06T15:30:04.268Z,15.05
2023-05-06T15:35:06.771Z,13.40
2023-05-06T15:40:13.321Z,13.13
2023-05-06T15:45:15.660Z,13.60
2023-05-06T15:50:32.857Z,12.87
2023-05-06T15:55:46.482Z,12.13
2023-05-06T16:00:51.644Z,13.85
2023-05-06T16:05:59.376Z,12.73
2023-05-06T16:11:01.657Z,10.93
2023-05-06T16:16:04.244Z,11.80
2023-05-06T16:21:07.604Z,11.80
2023-05-06T16:26:09.839Z,13.13
2023-05-06T16:31:12.109Z,12.20
2023-05-06T16:36:14.499Z,12.65
2023-05-06T16:41:16.718Z,14.10
2023-05-06T16:46:18.951Z,13.07
2023-05-06T16:51:21.282Z,13.93
2023-05-06T16:56:23.903Z,14.27
2023-05-06T17:01:26.904Z,16.10
2023-05-06T17:06:31.346Z,14.07
2023-05-06T17:11:33.513Z,14.80
2023-05-06T17:16:35.812Z,17.85
2023-05-06T17:21:40.217Z,16.20
2023-05-06T17:26:42.401Z,15.55
2023-05-06T17:31:44.787Z,16.73
2023-05-06T17:36:47.030Z,16.45
2023-05-06T17:41:49.352Z,17.73
2023-05-06T17:46:51.774Z,16.93
2023-05-06T17:51:56.044Z,17.10
2023-05-06T17:57:00.783Z,18.40
2023-05-06T18:02:03.306Z,19.73
2023-05-06T18:07:05.619Z,18.48
2023-05-06T18:12:07.999Z,17.23
2023-05-06T18:17:10.266Z,18.92
2023-05-06T18:22:12.487Z,16.60
2023-05-06T18:27:14.740Z,18.50
2023-05-06T18:32:17.880Z,19.15
2023-05-06T18:37:21.694Z,16.75
2023-05-06T18:42:24.146Z,19.42
2023-05-06T18:47:26.353Z,18.93
2023-05-06T18:52:28.529Z,19.37
2023-05-06T18:57:30.807Z,19.10
2023-05-06T19:02:33.066Z,19.70
2023-05-06T19:07:35.452Z,20.15
2023-05-06T19:12:37.924Z,18.47
2023-05-06T19:17:40.150Z,19.55
2023-05-06T19:22:42.613Z,22.00
2023-05-06T19:27:44.841Z,21.50
2023-05-06T19:32:47.052Z,20.50
2023-05-06T19:37:49.249Z,20.67
2023-05-06T19:42:51.560Z,18.52
2023-05-06T19:47:53.743Z,24.55
2023-05-06T19:52:55.953Z,20.98
2023-05-06T19:57:58.238Z,20.65
2023-05-06T20:03:00.815Z,21.57
2023-05-06T20:08:03.421Z,20.20
2023-05-06T20:13:07.114Z,22.48
2023-05-06T20:18:09.601Z,20.13
2023-05-06T20:23:11.940Z,21.60
2023-05-06T20:28:14.208Z,19.07
2023-05-06T20:33:16.734Z,19.27
2023-05-06T20:38:19.793Z,21.52
2023-05-06T20:43:21.972Z,20.08
2023-05-06T20:48:24.279Z,20.65
2023-05-06T20:53:27.338Z,24.07
2023-05-06T20:58:29.686Z,20.95
2023-05-06T21:03:31.923Z,24.50
2023-05-06T21:08:34.220Z,21.50
2023-05-06T21:13:36.518Z,21.20
2023-05-06T21:18:38.809Z,18.20
2023-05-06T21:23:41.114Z,19.10
2023-05-06T21:28:47.857Z,19.12
2023-05-06T21:33:55.618Z,19.27
2023-05-06T21:39:06.908Z,19.17
2023-05-06T21:44:09.415Z,18.77
2023-05-06T21:49:11.579Z,21.05
2023-05-06T21:54:13.896Z,23.05
2023-05-06T21:59:16.069Z,19.83
2023-05-06T22:04:20.063Z,21.98
2023-05-06T22:09:23.367Z,22.00
2023-05-06T22:14:30.355Z,20.77
2023-05-06T22:19:35.987Z,19.05
2023-05-06T22:24:39.611Z,18.02
2023-05-06T22:29:41.776Z,17.42
2023-05-06T22:34:43.952Z,16.40
2023-05-06T22:39:47.500Z,18.08
2023-05-06T22:44:49.790Z,13.38
2023-05-06T22:49:51.998Z,17.05
2023-05-06T22:54:54.163Z,13.90
2023-05-06T22:59:56.438Z,12.83
2023-05-06T23:04:59.437Z,17.85
2023-05-06T23:10:01.746Z,18.77
2023-05-06T23:15:04.510Z,14.55
2023-05-06T23:20:08.138Z,13.98
2023-05-06T23:25:11.665Z,13.87
2023-05-06T23:30:14.298Z,14.52
2023-05-06T23:35:16.536Z,13.70
2023-05-06T23:40:18.723Z,14.45
2023-05-06T23:45:20.916Z,14.10
2023-05-06T23:50:23.040Z,14.57
2023-05-06T23:55:26.503Z,13.82
